sensor_id;sensor_type;location;lat;lon;timestamp;pressure;altitude;pressure_sealevel;temperature;humidity
72636;BME280;60679;48.888;15.544;2022-09-09T04:11:01;96066.97;;;10.12;78.05
72636;BME280;60679;48.888;15.544;2022-09-09T05:02:12;96069.06;;;10.46;77.01
72636;BME280;60679;48.888;15.544;2022-09-09T05:26:22;96081.00;;;11.39;76.01
72636;BME280;60679;48.888;15.544;2022-09-09T06:05:32;96072.19;;;14.70;72.07
72636;BME280;60679;48.888;15.544;2022-09-09T06:10:31;96071.81;;;15.10;71.68
72636;BME280;60679;48.888;15.544;2022-09-09T06:12:56;96062.72;;;15.26;71.31
72636;BME280;60679;48.888;15.544;2022-09-09T06:26:23;96075.44;;;15.20;72.31
72636;BME280;60679;48.888;15.544;2022-09-09T06:57:24;96080.97;;;15.57;72.86
72636;BME280;60679;48.888;15.544;2022-09-09T08:39:19;96082.75;;;25.53;62.94
72636;BME280;60679;48.888;15.544;2022-09-09T08:43:27;96079.53;;;25.20;62.94
72636;BME280;60679;48.888;15.544;2022-09-09T08:48:42;96087.31;;;25.75;61.21
72636;BME280;60679;48.888;15.544;2022-09-09T09:04:14;96090.31;;;28.23;58.42
72636;BME280;60679;48.888;15.544;2022-09-09T09:29:18;96072.38;;;28.98;55.43
72636;BME280;60679;48.888;15.544;2022-09-09T10:22:47;96063.34;;;29.01;53.28
72636;BME280;60679;48.888;15.544;2022-09-09T11:53:52;96073.84;;;20.86;62.78
72636;BME280;60679;48.888;15.544;2022-09-09T11:58:27;96072.63;;;20.50;64.51
72636;BME280;60679;48.888;15.544;2022-09-09T12:03:49;96080.47;;;21.46;63.57
72636;BME280;60679;48.888;15.544;2022-09-09T12:24:37;96086.69;;;21.14;63.71
72636;BME280;60679;48.888;15.544;2022-09-09T12:38:54;96073.84;;;21.10;63.35
72636;BME280;60679;48.888;15.544;2022-09-09T12:43:27;96078.28;;;20.82;63.33
72636;BME280;60679;48.888;15.544;2022-09-09T12:58:50;96082.94;;;20.58;63.35
72636;BME280;60679;48.888;15.544;2022-09-09T13:03:26;96092.19;;;20.43;63.43
72636;BME280;60679;48.888;15.544;2022-09-09T13:08:24;96083.22;;;19.99;63.73
72636;BME280;60679;48.888;15.544;2022-09-09T13:13:41;96076.09;;;19.69;63.50
72636;BME280;60679;48.888;15.544;2022-09-09T13:18:30;96074.28;;;19.54;63.71
72636;BME280;60679;48.888;15.544;2022-09-09T13:23:28;96082.81;;;19.48;64.61
72636;BME280;60679;48.888;15.544;2022-09-09T13:28:28;96076.59;;;19.32;64.42
72636;BME280;60679;48.888;15.544;2022-09-09T13:33:22;96082.69;;;19.14;64.86
72636;BME280;60679;48.888;15.544;2022-09-09T13:35:57;96077.00;;;19.11;64.78
72636;BME280;60679;48.888;15.544;2022-09-09T13:38:55;96076.69;;;19.12;65.32
72636;BME280;60679;48.888;15.544;2022-09-09T13:43:24;96067.09;;;19.15;64.81
72636;BME280;60679;48.888;15.544;2022-09-09T13:46:05;96074.22;;;19.16;64.74
72636;BME280;60679;48.888;15.544;2022-09-09T13:48:58;96078.31;;;19.18;64.92
72636;BME280;60679;48.888;15.544;2022-09-09T13:53:25;96067.63;;;19.22;64.45
72636;BME280;60679;48.888;15.544;2022-09-09T13:55:51;96067.59;;;19.27;64.56
72636;BME280;60679;48.888;15.544;2022-09-09T13:58:26;96066.72;;;19.31;64.04
72636;BME280;60679;48.888;15.544;2022-09-09T14:00:52;96060.94;;;19.38;64.33
72636;BME280;60679;48.888;15.544;2022-09-09T14:03:38;96050.28;;;19.41;64.10
72636;BME280;60679;48.888;15.544;2022-09-09T14:08:25;96048.69;;;19.30;63.81
72636;BME280;60679;48.888;15.544;2022-09-09T14:13:23;96039.31;;;19.41;63.83
72636;BME280;60679;48.888;15.544;2022-09-09T14:15:48;96041.44;;;19.49;63.80
72636;BME280;60679;48.888;15.544;2022-09-09T14:18:25;96048.19;;;19.62;63.54
72636;BME280;60679;48.888;15.544;2022-09-09T14:20:51;96044.59;;;19.67;63.60
72636;BME280;60679;48.888;15.544;2022-09-09T14:23:25;96051.28;;;19.55;63.26
72636;BME280;60679;48.888;15.544;2022-09-09T14:25:51;96061.75;;;19.43;63.76
72636;BME280;60679;48.888;15.544;2022-09-09T14:28:26;96063.47;;;19.29;64.12
72636;BME280;60679;48.888;15.544;2022-09-09T14:33:25;96067.19;;;18.99;64.73
72636;BME280;60679;48.888;15.544;2022-09-09T14:36:02;96070.75;;;18.95;65.26
72636;BME280;60679;48.888;15.544;2022-09-09T14:38:38;96059.56;;;18.91;64.94
72636;BME280;60679;48.888;15.544;2022-09-09T14:43:24;96058.56;;;18.72;65.44
72636;BME280;60679;48.888;15.544;2022-09-09T14:45:49;96060.22;;;18.68;65.58
72636;BME280;60679;48.888;15.544;2022-09-09T14:58:50;96071.19;;;18.43;66.15
72636;BME280;60679;48.888;15.544;2022-09-09T15:13:51;96068.50;;;18.48;66.86
72636;BME280;60679;48.888;15.544;2022-09-09T15:18:24;96064.94;;;18.32;67.14
72636;BME280;60679;48.888;15.544;2022-09-09T15:20:50;96069.88;;;18.30;67.22
72636;BME280;60679;48.888;15.544;2022-09-09T15:23:25;96069.91;;;18.25;66.85
72636;BME280;60679;48.888;15.544;2022-09-09T15:25:52;96075.38;;;18.20;66.94
72636;BME280;60679;48.888;15.544;2022-09-09T15:28:27;96076.22;;;18.06;67.14
72636;BME280;60679;48.888;15.544;2022-09-09T15:33:25;96071.84;;;17.54;67.83
72636;BME280;60679;48.888;15.544;2022-09-09T15:35:50;96064.44;;;17.40;67.90
72636;BME280;60679;48.888;15.544;2022-09-09T15:38:52;96073.22;;;17.62;67.70
72636;BME280;60679;48.888;15.544;2022-09-09T15:43:25;96072.41;;;17.76;67.32
72636;BME280;60679;48.888;15.544;2022-09-09T15:45:57;96075.13;;;17.76;67.79
72636;BME280;60679;48.888;15.544;2022-09-09T15:48:33;96055.19;;;17.81;67.45
72636;BME280;60679;48.888;15.544;2022-09-09T15:53:25;96059.00;;;17.85;67.50
72636;BME280;60679;48.888;15.544;2022-09-09T15:58:24;96057.38;;;17.74;67.80
72636;BME280;60679;48.888;15.544;2022-09-09T16:00:49;96048.09;;;17.70;67.92
72636;BME280;60679;48.888;15.544;2022-09-09T16:03:26;96050.28;;;17.63;68.17
72636;BME280;60679;48.888;15.544;2022-09-09T16:05:51;96050.28;;;17.58;68.43
72636;BME280;60679;48.888;15.544;2022-09-09T16:08:32;96050.00;;;17.54;68.35
72636;BME280;60679;48.888;15.544;2022-09-09T16:13:25;96046.97;;;17.51;68.38
72636;BME280;60679;48.888;15.544;2022-09-09T16:15:54;96046.44;;;17.49;68.73
72636;BME280;60679;48.888;15.544;2022-09-09T16:18:33;96044.78;;;17.53;68.43
72636;BME280;60679;48.888;15.544;2022-09-09T16:23:24;96054.88;;;17.47;68.36
72636;BME280;60679;48.888;15.544;2022-09-09T16:25:56;96046.44;;;17.44;68.85
72636;BME280;60679;48.888;15.544;2022-09-09T16:28:30;96043.97;;;17.42;68.85
72636;BME280;60679;48.888;15.544;2022-09-09T16:30:56;96045.06;;;17.41;68.55
72636;BME280;60679;48.888;15.544;2022-09-09T16:33:40;96046.69;;;17.37;69.17
72636;BME280;60679;48.888;15.544;2022-09-09T16:38:30;96037.69;;;17.26;68.99
72636;BME280;60679;48.888;15.544;2022-09-09T16:41:00;96036.31;;;17.24;68.79
72636;BME280;60679;48.888;15.544;2022-09-09T16:43:26;96040.41;;;17.21;68.94
72636;BME280;60679;48.888;15.544;2022-09-09T16:45:51;96040.38;;;17.16;68.98
72636;BME280;60679;48.888;15.544;2022-09-09T16:48:16;96045.81;;;17.06;69.35
72636;BME280;60679;48.888;15.544;2022-09-09T16:50:42;96052.91;;;16.97;69.40
72636;BME280;60679;48.888;15.544;2022-09-09T16:53:07;96049.34;;;16.92;69.54
72636;BME280;60679;48.888;15.544;2022-09-09T16:55:40;96043.34;;;16.90;69.68
72636;BME280;60679;48.888;15.544;2022-09-09T16:58:12;96046.06;;;16.85;69.84
72636;BME280;60679;48.888;15.544;2022-09-09T17:00:38;96049.56;;;16.80;69.96
72636;BME280;60679;48.888;15.544;2022-09-09T17:03:03;96052.81;;;16.77;69.98
72636;BME280;60679;48.888;15.544;2022-09-09T17:05:29;96059.91;;;16.73;70.01
72636;BME280;60679;48.888;15.544;2022-09-09T17:07:55;96066.97;;;16.64;69.80
72636;BME280;60679;48.888;15.544;2022-09-09T17:10:24;96062.75;;;16.41;70.56
72636;BME280;60679;48.888;15.544;2022-09-09T17:12:50;96065.69;;;16.30;70.67
72636;BME280;60679;48.888;15.544;2022-09-09T17:15:16;96068.44;;;16.35;70.57
72636;BME280;60679;48.888;15.544;2022-09-09T17:17:43;96064.13;;;16.44;70.45
72636;BME280;60679;48.888;15.544;2022-09-09T17:20:10;96061.72;;;16.52;70.61
72636;BME280;60679;48.888;15.544;2022-09-09T17:22:36;96052.75;;;16.57;70.09
72636;BME280;60679;48.888;15.544;2022-09-09T17:25:02;96050.31;;;16.60;70.38
72636;BME280;60679;48.888;15.544;2022-09-09T17:27:28;96053.59;;;16.62;70.26
72636;BME280;60679;48.888;15.544;2022-09-09T17:29:56;96054.16;;;16.59;70.35
72636;BME280;60679;48.888;15.544;2022-09-09T17:32:22;96059.31;;;16.56;70.10
72636;BME280;60679;48.888;15.544;2022-09-09T17:34:47;96060.88;;;16.52;70.52
72636;BME280;60679;48.888;15.544;2022-09-09T17:37:13;96058.13;;;16.47;70.47
72636;BME280;60679;48.888;15.544;2022-09-09T17:39:38;96061.66;;;16.42;70.54
72636;BME280;60679;48.888;15.544;2022-09-09T17:42:04;96066.53;;;16.40;70.70
72636;BME280;60679;48.888;15.544;2022-09-09T17:44:29;96068.19;;;16.41;70.47
72636;BME280;60679;48.888;15.544;2022-09-09T17:46:57;96059.75;;;16.43;70.46
72636;BME280;60679;48.888;15.544;2022-09-09T17:49:22;96069.28;;;16.40;70.57
72636;BME280;60679;48.888;15.544;2022-09-09T17:51:48;96073.09;;;16.39;70.79
72636;BME280;60679;48.888;15.544;2022-09-09T17:54:18;96067.91;;;16.43;70.66
72636;BME280;60679;48.888;15.544;2022-09-09T17:56:44;96072.56;;;16.42;70.53
72636;BME280;60679;48.888;15.544;2022-09-09T17:59:11;96079.94;;;16.42;70.65
72636;BME280;60679;48.888;15.544;2022-09-09T18:01:40;96079.09;;;16.41;70.74
72636;BME280;60679;48.888;15.544;2022-09-09T18:04:08;96082.34;;;16.38;70.55
72636;BME280;60679;48.888;15.544;2022-09-09T18:06:36;96080.69;;;16.37;70.73
72636;BME280;60679;48.888;15.544;2022-09-09T18:09:05;96089.97;;;16.31;70.87
72636;BME280;60679;48.888;15.544;2022-09-09T18:11:34;96095.66;;;16.30;71.00
72636;BME280;60679;48.888;15.544;2022-09-09T18:14:01;96094.00;;;16.29;70.95
72636;BME280;60679;48.888;15.544;2022-09-09T18:16:28;96100.81;;;16.26;70.92
72636;BME280;60679;48.888;15.544;2022-09-09T18:18:55;96101.59;;;16.22;70.96
72636;BME280;60679;48.888;15.544;2022-09-09T18:21:22;96102.69;;;16.21;71.19
72636;BME280;60679;48.888;15.544;2022-09-09T18:23:50;96106.50;;;16.20;71.11
72636;BME280;60679;48.888;15.544;2022-09-09T18:26:21;96099.69;;;16.17;71.11
72636;BME280;60679;48.888;15.544;2022-09-09T18:28:53;96101.31;;;16.18;71.02
72636;BME280;60679;48.888;15.544;2022-09-09T18:31:21;96107.84;;;16.17;71.21
72636;BME280;60679;48.888;15.544;2022-09-09T18:33:52;96101.59;;;16.16;70.96
72636;BME280;60679;48.888;15.544;2022-09-09T18:36:27;96104.31;;;16.16;71.26
72636;BME280;60679;48.888;15.544;2022-09-09T18:38:55;96098.56;;;16.13;71.21
72636;BME280;60679;48.888;15.544;2022-09-09T18:41:34;96100.41;;;16.07;71.31
72636;BME280;60679;48.888;15.544;2022-09-09T18:44:04;96097.41;;;16.04;71.29
72636;BME280;60679;48.888;15.544;2022-09-09T18:46:32;96096.53;;;15.98;71.34
72636;BME280;60679;48.888;15.544;2022-09-09T18:48:57;96097.66;;;15.97;71.68
72636;BME280;60679;48.888;15.544;2022-09-09T18:51:25;96089.72;;;15.96;71.42
72636;BME280;60679;48.888;15.544;2022-09-09T18:53:54;96088.34;;;15.93;71.57
72636;BME280;60679;48.888;15.544;2022-09-09T18:56:20;96092.38;;;15.86;71.63
72636;BME280;60679;48.888;15.544;2022-09-09T18:58:51;96089.56;;;15.76;71.69
72636;BME280;60679;48.888;15.544;2022-09-09T19:01:17;96087.34;;;15.73;72.16
72636;BME280;60679;48.888;15.544;2022-09-09T19:03:43;96091.44;;;15.70;71.80
72636;BME280;60679;48.888;15.544;2022-09-09T19:06:11;96097.06;;;15.64;72.03
72636;BME280;60679;48.888;15.544;2022-09-09T19:08:39;96102.44;;;15.53;72.10
72636;BME280;60679;48.888;15.544;2022-09-09T19:11:07;96094.78;;;15.50;72.46
72636;BME280;60679;48.888;15.544;2022-09-09T19:13:33;96106.59;;;15.61;72.33
72636;BME280;60679;48.888;15.544;2022-09-09T19:16:07;96104.72;;;15.67;72.14
72636;BME280;60679;48.888;15.544;2022-09-09T19:18:33;96111.88;;;15.73;72.30
72636;BME280;60679;48.888;15.544;2022-09-09T19:21:19;96115.16;;;15.75;72.20
72636;BME280;60679;48.888;15.544;2022-09-09T19:23:57;96123.63;;;15.78;72.34
72636;BME280;60679;48.888;15.544;2022-09-09T19:26:28;96121.19;;;15.82;71.94
72636;BME280;60679;48.888;15.544;2022-09-09T19:28:57;96123.09;;;15.81;71.77
72636;BME280;60679;48.888;15.544;2022-09-09T19:31:23;96129.66;;;15.80;72.17
72636;BME280;60679;48.888;15.544;2022-09-09T19:33:49;96129.66;;;15.80;71.88
72636;BME280;60679;48.888;15.544;2022-09-09T19:36:17;96125.31;;;15.84;72.29
72636;BME280;60679;48.888;15.544;2022-09-09T19:38:44;96135.13;;;15.85;72.18
72636;BME280;60679;48.888;15.544;2022-09-09T19:41:16;96135.44;;;15.89;72.08
72636;BME280;60679;48.888;15.544;2022-09-09T19:43:42;96130.25;;;15.92;72.26
72636;BME280;60679;48.888;15.544;2022-09-09T19:46:10;96130.03;;;15.94;72.15
72636;BME280;60679;48.888;15.544;2022-09-09T19:48:37;96133.28;;;15.96;72.43
72636;BME280;60679;48.888;15.544;2022-09-09T19:51:14;96134.66;;;15.98;72.15
72636;BME280;60679;48.888;15.544;2022-09-09T19:53:43;96138.25;;;16.04;72.14
72636;BME280;60679;48.888;15.544;2022-09-09T19:56:09;96129.25;;;16.03;71.97
72636;BME280;60679;48.888;15.544;2022-09-09T19:58:36;96128.16;;;15.99;72.33
72636;BME280;60679;48.888;15.544;2022-09-09T20:01:14;96133.06;;;15.97;72.40
72636;BME280;60679;48.888;15.544;2022-09-09T20:03:42;96134.63;;;15.93;72.38
72636;BME280;60679;48.888;15.544;2022-09-09T20:06:10;96136.81;;;15.91;72.61
72636;BME280;60679;48.888;15.544;2022-09-09T20:08:37;96137.31;;;15.88;72.55
72636;BME280;60679;48.888;15.544;2022-09-09T20:11:04;96132.13;;;15.87;72.73
72636;BME280;60679;48.888;15.544;2022-09-09T20:13:31;96144.91;;;15.86;72.70
72636;BME280;60679;48.888;15.544;2022-09-09T20:16:10;96146.03;;;15.85;72.52
72636;BME280;60679;48.888;15.544;2022-09-09T20:18:38;96144.63;;;15.83;72.61
72636;BME280;60679;48.888;15.544;2022-09-09T20:21:10;96152.50;;;15.79;72.92
72636;BME280;60679;48.888;15.544;2022-09-09T20:23:36;96157.38;;;15.77;72.90
72636;BME280;60679;48.888;15.544;2022-09-09T20:26:05;96154.09;;;15.75;72.91
72636;BME280;60679;48.888;15.544;2022-09-09T20:28:32;96157.38;;;15.77;72.78
72636;BME280;60679;48.888;15.544;2022-09-09T20:31:10;96152.50;;;15.79;73.20
72636;BME280;60679;48.888;15.544;2022-09-09T20:33:36;96155.47;;;15.78;72.80
72636;BME280;60679;48.888;15.544;2022-09-09T20:36:23;96153.81;;;15.72;72.92
72636;BME280;60679;48.888;15.544;2022-09-09T20:38:52;96154.16;;;15.53;72.98
72636;BME280;60679;48.888;15.544;2022-09-09T20:41:20;96152.78;;;15.51;73.09
72636;BME280;60679;48.888;15.544;2022-09-09T20:43:48;96151.72;;;15.52;73.24
72636;BME280;60679;48.888;15.544;2022-09-09T20:46:19;96153.84;;;15.50;73.18
72636;BME280;60679;48.888;15.544;2022-09-09T20:48:45;96156.31;;;15.51;73.55
72636;BME280;60679;48.888;15.544;2022-09-09T20:51:11;96157.41;;;15.50;73.11
72636;BME280;60679;48.888;15.544;2022-09-09T20:53:37;96155.78;;;15.49;73.33
72636;BME280;60679;48.888;15.544;2022-09-09T20:56:03;96149.50;;;15.49;73.30
72636;BME280;60679;48.888;15.544;2022-09-09T20:58:30;96143.22;;;15.48;73.40
72636;BME280;60679;48.888;15.544;2022-09-09T21:00:57;96143.53;;;15.52;73.21
72636;BME280;60679;48.888;15.544;2022-09-09T21:03:35;96148.16;;;15.51;73.44
72636;BME280;60679;48.888;15.544;2022-09-09T21:06:04;96149.50;;;15.49;73.36
72636;BME280;60679;48.888;15.544;2022-09-09T21:08:31;96154.34;;;15.47;73.36
72636;BME280;60679;48.888;15.544;2022-09-09T21:10:57;96146.44;;;15.45;73.39
72636;BME280;60679;48.888;15.544;2022-09-09T21:13:23;96146.13;;;15.42;73.41
72636;BME280;60679;48.888;15.544;2022-09-09T21:15:50;96151.00;;;15.40;73.58
72636;BME280;60679;48.888;15.544;2022-09-09T21:18:17;96137.94;;;15.42;73.41
72636;BME280;60679;48.888;15.544;2022-09-09T21:20:43;96140.13;;;15.40;73.65
72636;BME280;60679;48.888;15.544;2022-09-09T21:23:10;96139.56;;;15.38;73.63
72636;BME280;60679;48.888;15.544;2022-09-09T21:25:36;96134.88;;;15.33;73.72
72636;BME280;60679;48.888;15.544;2022-09-09T21:28:03;96133.50;;;15.31;73.42
72636;BME280;60679;48.888;15.544;2022-09-09T21:30:28;96139.72;;;15.26;73.53
72636;BME280;60679;48.888;15.544;2022-09-09T21:32:54;96136.41;;;15.24;73.62
72636;BME280;60679;48.888;15.544;2022-09-09T21:35:19;96141.56;;;15.21;73.38
72636;BME280;60679;48.888;15.544;2022-09-09T21:37:45;96131.19;;;15.18;73.69
72636;BME280;60679;48.888;15.544;2022-09-09T21:40:11;96130.34;;;15.17;73.81
72636;BME280;60679;48.888;15.544;2022-09-09T21:42:37;96134.13;;;15.16;73.75
72636;BME280;60679;48.888;15.544;2022-09-09T21:45:04;96133.59;;;15.14;73.93
72636;BME280;60679;48.888;15.544;2022-09-09T21:47:29;96134.13;;;15.16;73.91
72636;BME280;60679;48.888;15.544;2022-09-09T21:49:55;96139.28;;;15.13;73.78
72636;BME280;60679;48.888;15.544;2022-09-09T21:52:20;96129.47;;;15.12;73.89
72636;BME280;60679;48.888;15.544;2022-09-09T21:54:45;96134.88;;;15.07;73.93
72636;BME280;60679;48.888;15.544;2022-09-09T21:57:11;96125.25;;;14.99;73.81
72636;BME280;60679;48.888;15.544;2022-09-09T21:59:38;96127.09;;;14.93;74.15
72636;BME280;60679;48.888;15.544;2022-09-09T22:02:05;96125.09;;;14.84;74.23
72636;BME280;60679;48.888;15.544;2022-09-09T22:04:30;96120.09;;;14.76;74.16
72636;BME280;60679;48.888;15.544;2022-09-09T22:06:55;96120.50;;;14.68;74.20
72636;BME280;60679;48.888;15.544;2022-09-09T22:09:21;96122.34;;;14.62;74.36
72636;BME280;60679;48.888;15.544;2022-09-09T22:11:47;96120.66;;;14.56;74.36
72636;BME280;60679;48.888;15.544;2022-09-09T22:14:12;96122.50;;;14.51;74.44
72636;BME280;60679;48.888;15.544;2022-09-09T22:16:38;96117.28;;;14.49;74.44
72636;BME280;60679;48.888;15.544;2022-09-09T22:19:04;96119.06;;;14.38;74.69
72636;BME280;60679;48.888;15.544;2022-09-09T22:21:30;96123.81;;;14.31;74.77
72636;BME280;60679;48.888;15.544;2022-09-09T22:23:59;96130.00;;;14.27;74.83
72636;BME280;60679;48.888;15.544;2022-09-09T22:26:27;96129.53;;;14.13;75.23
72636;BME280;60679;48.888;15.544;2022-09-09T22:28:53;96132.50;;;14.12;75.20
72636;BME280;60679;48.888;15.544;2022-09-09T22:31:21;96135.59;;;14.20;75.20
72636;BME280;60679;48.888;15.544;2022-09-09T22:33:46;96125.69;;;14.31;75.26
72636;BME280;60679;48.888;15.544;2022-09-09T22:36:12;96132.66;;;14.38;74.85
72636;BME280;60679;48.888;15.544;2022-09-09T22:38:37;96122.50;;;14.34;74.74
72636;BME280;60679;48.888;15.544;2022-09-09T22:41:04;96129.09;;;14.21;75.09
72636;BME280;60679;48.888;15.544;2022-09-09T22:43:30;96129.22;;;14.10;75.31
72636;BME280;60679;48.888;15.544;2022-09-09T22:45:59;96116.38;;;14.05;75.31
72636;BME280;60679;48.888;15.544;2022-09-09T22:48:25;96120.59;;;13.96;75.52
72636;BME280;60679;48.888;15.544;2022-09-09T22:50:50;96117.31;;;13.94;75.63
72636;BME280;60679;48.888;15.544;2022-09-09T22:53:16;96114.72;;;14.04;75.42
72636;BME280;60679;48.888;15.544;2022-09-09T22:55:54;96114.16;;;14.02;75.28
72636;BME280;60679;48.888;15.544;2022-09-09T22:58:19;96114.91;;;13.98;75.41
72636;BME280;60679;48.888;15.544;2022-09-09T23:00:46;96114.59;;;13.94;75.47
72636;BME280;60679;48.888;15.544;2022-09-09T23:03:11;96108.25;;;13.88;75.36
72636;BME280;60679;48.888;15.544;2022-09-09T23:05:37;96109.75;;;13.79;75.55
72636;BME280;60679;48.888;15.544;2022-09-09T23:08:02;96110.41;;;13.70;75.73
72636;BME280;60679;48.888;15.544;2022-09-09T23:10:28;96113.44;;;13.57;75.73
72636;BME280;60679;48.888;15.544;2022-09-09T23:12:56;96110.72;;;13.40;75.95
72636;BME280;60679;48.888;15.544;2022-09-09T23:15:22;96105.94;;;13.30;76.23
72636;BME280;60679;48.888;15.544;2022-09-09T23:17:48;96097.16;;;13.23;76.33
72636;BME280;60679;48.888;15.544;2022-09-09T23:20:15;96103.28;;;13.19;76.51
72636;BME280;60679;48.888;15.544;2022-09-09T23:22:41;96101.78;;;13.11;76.36
72636;BME280;60679;48.888;15.544;2022-09-09T23:25:07;96096.03;;;13.08;76.64
72636;BME280;60679;48.888;15.544;2022-09-09T23:27:32;96092.72;;;13.06;76.40
72636;BME280;60679;48.888;15.544;2022-09-09T23:29:59;96094.72;;;13.10;76.58
72636;BME280;60679;48.888;15.544;2022-09-09T23:32:25;96090.69;;;13.13;76.40
72636;BME280;60679;48.888;15.544;2022-09-09T23:34:50;96087.75;;;13.14;76.21
72636;BME280;60679;48.888;15.544;2022-09-09T23:37:16;96080.44;;;13.15;76.09
72636;BME280;60679;48.888;15.544;2022-09-09T23:39:43;96084.22;;;13.14;76.14
72636;BME280;60679;48.888;15.544;2022-09-09T23:42:09;96086.00;;;13.08;76.16
72636;BME280;60679;48.888;15.544;2022-09-09T23:44:36;96076.94;;;13.03;76.13
72636;BME280;60679;48.888;15.544;2022-09-09T23:47:03;96078.47;;;12.99;76.08
72636;BME280;60679;48.888;15.544;2022-09-09T23:49:30;96076.72;;;12.93;76.25
72636;BME280;60679;48.888;15.544;2022-09-09T23:51:56;96075.50;;;12.84;76.44
72636;BME280;60679;48.888;15.544;2022-09-09T23:54:21;96070.34;;;12.70;76.59
72636;BME280;60679;48.888;15.544;2022-09-09T23:56:48;96075.47;;;12.67;nan
72636;BME280;60679;48.888;15.544;2022-09-09T23:59:13;96078.75;;;12.69;76.83
